sensor_id;sensor_type;location;lat;lon;timestamp;pressure;altitude;pressure_sealevel;temperature
79148;BMP280;68562;51.600;6.524;2023-06-14T00:00:00;1013.2;;;23.0
79148;BMP280;68562;51.600;6.524;2023-06-14T00:05:00;1013.2;;;22.9
79148;BMP280;68562;51.600;6.524;2023-06-14T00:10:00;1013.2;;;22.9
79148;BMP280;68562;51.600;6.524;2023-06-14T00:15:00;1013.2;;;22.8
79148;BMP280;68562;51.600;6.524;2023-06-14T00:20:02;1013.3;;;22.7
79148;BMP280;68562;51.600;6.524;2023-06-14T00:25:00;1013.3;;;22.7
79148;BMP280;68562;51.600;6.524;2023-06-14T00:30:00;1013.4;;;22.6
79148;BMP280;68562;51.600;6.524;2023-06-14T00:35:00;1013.4;;;22.5
79148;BMP280;68562;51.600;6.524;2023-06-14T00:40:00;1013.5;;;22.4
79148;BMP280;68562;51.600;6.524;2023-06-14T00:45:00;1013.5;;;22.4
79148;BMP280;68562;51.600;6.524;2023-06-14T00:50:01;1013.6;;;22.3
79148;BMP280;68562;51.600;6.524;2023-06-14T00:55:01;1013.7;;;22.2
79148;BMP280;68562;51.600;6.524;2023-06-14T01:00:00;1013.7;;;22.1
79148;BMP280;68562;51.600;6.524;2023-06-14T01:05:00;1013.6;;;22.1
79148;BMP280;68562;51.600;6.524;2023-06-14T01:10:12;1013.7;;;22.0
79148;BMP280;68562;51.600;6.524;2023-06-14T01:15:01;1013.7;;;22.0
79148;BMP280;68562;51.600;6.524;2023-06-14T01:20:01;1013.6;;;21.9
79148;BMP280;68562;51.600;6.524;2023-06-14T01:25:00;1013.6;;;21.9
79148;BMP280;68562;51.600;6.524;2023-06-14T01:30:00;1013.6;;;21.8
79148;BMP280;68562;51.600;6.524;2023-06-14T01:35:00;1013.6;;;21.7
79148;BMP280;68562;51.600;6.524;2023-06-14T01:40:01;1013.6;;;21.7
79148;BMP280;68562;51.600;6.524;2023-06-14T01:45:00;1013.6;;;21.6
79148;BMP280;68562;51.600;6.524;2023-06-14T01:50:01;1013.6;;;21.6
79148;BMP280;68562;51.600;6.524;2023-06-14T01:55:00;1013.6;;;21.6
79148;BMP280;68562;51.600;6.524;2023-06-14T02:00:00;1013.6;;;21.5
79148;BMP280;68562;51.600;6.524;2023-06-14T02:05:00;1013.6;;;21.5
79148;BMP280;68562;51.600;6.524;2023-06-14T02:10:00;1013.6;;;21.4
79148;BMP280;68562;51.600;6.524;2023-06-14T02:15:00;1013.6;;;21.4
79148;BMP280;68562;51.600;6.524;2023-06-14T02:20:00;1013.6;;;21.3
79148;BMP280;68562;51.600;6.524;2023-06-14T02:25:00;1013.6;;;21.2
79148;BMP280;68562;51.600;6.524;2023-06-14T02:30:00;1013.6;;;21.1
79148;BMP280;68562;51.600;6.524;2023-06-14T02:35:00;1013.7;;;21.1
79148;BMP280;68562;51.600;6.524;2023-06-14T02:40:00;1013.7;;;21.0
79148;BMP280;68562;51.600;6.524;2023-06-14T02:45:00;1013.7;;;21.0
79148;BMP280;68562;51.600;6.524;2023-06-14T02:50:00;1013.8;;;20.9
79148;BMP280;68562;51.600;6.524;2023-06-14T02:55:00;1013.9;;;20.8
79148;BMP280;68562;51.600;6.524;2023-06-14T03:00:00;1013.9;;;20.8
79148;BMP280;68562;51.600;6.524;2023-06-14T03:05:00;1013.9;;;20.7
79148;BMP280;68562;51.600;6.524;2023-06-14T03:10:00;1014.0;;;20.7
79148;BMP280;68562;51.600;6.524;2023-06-14T03:15:00;1014.1;;;20.6
79148;BMP280;68562;51.600;6.524;2023-06-14T03:20:00;1014.1;;;20.7
79148;BMP280;68562;51.600;6.524;2023-06-14T03:25:00;1014.1;;;20.7
79148;BMP280;68562;51.600;6.524;2023-06-14T03:30:00;1014.1;;;20.7
79148;BMP280;68562;51.600;6.524;2023-06-14T03:35:00;1014.1;;;20.6
79148;BMP280;68562;51.600;6.524;2023-06-14T03:40:00;1014.1;;;20.6
79148;BMP280;68562;51.600;6.524;2023-06-14T03:45:00;1014.2;;;20.6
79148;BMP280;68562;51.600;6.524;2023-06-14T03:50:00;1014.3;;;20.7
79148;BMP280;68562;51.600;6.524;2023-06-14T03:55:01;1014.3;;;20.7
79148;BMP280;68562;51.600;6.524;2023-06-14T04:00:02;1014.3;;;20.7
79148;BMP280;68562;51.600;6.524;2023-06-14T04:05:00;1014.4;;;20.6
79148;BMP280;68562;51.600;6.524;2023-06-14T04:10:00;1014.5;;;20.7
79148;BMP280;68562;51.600;6.524;2023-06-14T04:15:00;1014.5;;;20.6
79148;BMP280;68562;51.600;6.524;2023-06-14T04:20:01;1014.6;;;20.6
79148;BMP280;68562;51.600;6.524;2023-06-14T04:25:00;1014.7;;;20.6
79148;BMP280;68562;51.600;6.524;2023-06-14T04:30:00;1014.7;;;20.7
79148;BMP280;68562;51.600;6.524;2023-06-14T04:35:00;1014.7;;;20.8
79148;BMP280;68562;51.600;6.524;2023-06-14T04:40:00;1014.7;;;20.9
79148;BMP280;68562;51.600;6.524;2023-06-14T04:45:00;1014.7;;;20.9
79148;BMP280;68562;51.600;6.524;2023-06-14T04:50:00;1014.7;;;21.0
79148;BMP280;68562;51.600;6.524;2023-06-14T04:55:00;1014.8;;;20.9
79148;BMP280;68562;51.600;6.524;2023-06-14T05:00:00;1014.8;;;21.0
79148;BMP280;68562;51.600;6.524;2023-06-14T05:05:00;1014.9;;;21.0
79148;BMP280;68562;51.600;6.524;2023-06-14T05:10:00;1014.9;;;21.1
79148;BMP280;68562;51.600;6.524;2023-06-14T05:15:00;1015.0;;;21.2
79148;BMP280;68562;51.600;6.524;2023-06-14T05:20:00;1015.0;;;21.3
79148;BMP280;68562;51.600;6.524;2023-06-14T05:25:00;1015.0;;;21.4
79148;BMP280;68562;51.600;6.524;2023-06-14T05:30:00;1015.1;;;21.6
79148;BMP280;68562;51.600;6.524;2023-06-14T05:35:00;1015.1;;;21.6
79148;BMP280;68562;51.600;6.524;2023-06-14T05:40:00;1015.1;;;21.8
79148;BMP280;68562;51.600;6.524;2023-06-14T05:45:00;1015.1;;;21.8
79148;BMP280;68562;51.600;6.524;2023-06-14T05:50:00;1015.1;;;22.0
79148;BMP280;68562;51.600;6.524;2023-06-14T05:55:00;1015.2;;;22.1
79148;BMP280;68562;51.600;6.524;2023-06-14T06:00:00;1015.2;;;22.4
79148;BMP280;68562;51.600;6.524;2023-06-14T06:05:00;1015.2;;;22.5
79148;BMP280;68562;51.600;6.524;2023-06-14T06:10:00;1015.2;;;22.8
79148;BMP280;68562;51.600;6.524;2023-06-14T06:15:00;1015.3;;;22.9
79148;BMP280;68562;51.600;6.524;2023-06-14T06:20:00;1015.3;;;23.1
79148;BMP280;68562;51.600;6.524;2023-06-14T06:25:00;1015.4;;;23.4
79148;BMP280;68562;51.600;6.524;2023-06-14T06:30:00;1015.4;;;23.5
79148;BMP280;68562;51.600;6.524;2023-06-14T06:35:00;1015.5;;;23.6
79148;BMP280;68562;51.600;6.524;2023-06-14T06:40:00;1015.5;;;23.7
79148;BMP280;68562;51.600;6.524;2023-06-14T06:45:00;1015.6;;;23.8
79148;BMP280;68562;51.600;6.524;2023-06-14T06:50:00;1015.6;;;23.9
79148;BMP280;68562;51.600;6.524;2023-06-14T06:55:00;1015.7;;;24.0
79148;BMP280;68562;51.600;6.524;2023-06-14T07:00:00;1015.7;;;24.1
79148;BMP280;68562;51.600;6.524;2023-06-14T07:05:00;1015.8;;;24.4
79148;BMP280;68562;51.600;6.524;2023-06-14T07:10:00;1015.8;;;24.6
79148;BMP280;68562;51.600;6.524;2023-06-14T07:15:00;1015.9;;;24.8
79148;BMP280;68562;51.600;6.524;2023-06-14T07:20:01;1015.9;;;25.0
79148;BMP280;68562;51.600;6.524;2023-06-14T07:25:00;1016.0;;;25.1
79148;BMP280;68562;51.600;6.524;2023-06-14T07:30:00;1016.0;;;25.2
79148;BMP280;68562;51.600;6.524;2023-06-14T07:35:00;1016.0;;;25.6
79148;BMP280;68562;51.600;6.524;2023-06-14T07:40:00;1015.9;;;25.7
79148;BMP280;68562;51.600;6.524;2023-06-14T07:45:00;1015.9;;;26.0
79148;BMP280;68562;51.600;6.524;2023-06-14T07:50:00;1016.0;;;26.1
79148;BMP280;68562;51.600;6.524;2023-06-14T07:55:00;1016.0;;;26.4
79148;BMP280;68562;51.600;6.524;2023-06-14T08:00:00;1015.9;;;26.6
79148;BMP280;68562;51.600;6.524;2023-06-14T08:05:00;1016.0;;;26.9
79148;BMP280;68562;51.600;6.524;2023-06-14T08:10:00;1016.0;;;27.2
79148;BMP280;68562;51.600;6.524;2023-06-14T08:15:00;1016.0;;;27.7
79148;BMP280;68562;51.600;6.524;2023-06-14T08:20:00;1015.9;;;28.1
79148;BMP280;68562;51.600;6.524;2023-06-14T08:25:00;1016.0;;;28.5
79148;BMP280;68562;51.600;6.524;2023-06-14T08:30:00;1015.9;;;28.8
79148;BMP280;68562;51.600;6.524;2023-06-14T08:35:00;1015.9;;;29.2
79148;BMP280;68562;51.600;6.524;2023-06-14T08:40:00;1015.9;;;29.7
79148;BMP280;68562;51.600;6.524;2023-06-14T08:45:00;1015.9;;;30.4
79148;BMP280;68562;51.600;6.524;2023-06-14T08:50:00;1015.9;;;30.9
79148;BMP280;68562;51.600;6.524;2023-06-14T08:55:00;1015.8;;;31.4
79148;BMP280;68562;51.600;6.524;2023-06-14T09:00:02;1015.8;;;31.9
79148;BMP280;68562;51.600;6.524;2023-06-14T09:05:00;1015.8;;;32.5
79148;BMP280;68562;51.600;6.524;2023-06-14T09:10:08;1015.9;;;33.0
79148;BMP280;68562;51.600;6.524;2023-06-14T09:15:00;1015.9;;;33.6
79148;BMP280;68562;51.600;6.524;2023-06-14T09:20:00;1015.9;;;34.1
79148;BMP280;68562;51.600;6.524;2023-06-14T09:25:01;1015.9;;;34.4
79148;BMP280;68562;51.600;6.524;2023-06-14T09:30:00;1015.9;;;34.6
79148;BMP280;68562;51.600;6.524;2023-06-14T09:35:00;1016.0;;;35.0
79148;BMP280;68562;51.600;6.524;2023-06-14T09:40:00;1016.0;;;35.4
79148;BMP280;68562;51.600;6.524;2023-06-14T09:45:01;1016.0;;;35.8
79148;BMP280;68562;51.600;6.524;2023-06-14T09:50:00;1016.1;;;36.3
79148;BMP280;68562;51.600;6.524;2023-06-14T09:55:01;1016.1;;;36.4
79148;BMP280;68562;51.600;6.524;2023-06-14T10:00:01;1016.2;;;36.3
79148;BMP280;68562;51.600;6.524;2023-06-14T10:05:03;1016.1;;;36.1
79148;BMP280;68562;51.600;6.524;2023-06-14T10:10:00;1016.1;;;35.9
79148;BMP280;68562;51.600;6.524;2023-06-14T10:15:01;1016.0;;;36.0
79148;BMP280;68562;51.600;6.524;2023-06-14T10:20:10;1016.1;;;36.6
79148;BMP280;68562;51.600;6.524;2023-06-14T10:25:01;1016.1;;;37.0
79148;BMP280;68562;51.600;6.524;2023-06-14T10:30:02;1016.0;;;36.9
79148;BMP280;68562;51.600;6.524;2023-06-14T10:35:01;1016.1;;;36.4
79148;BMP280;68562;51.600;6.524;2023-06-14T10:40:00;1016.0;;;36.1
79148;BMP280;68562;51.600;6.524;2023-06-14T10:45:00;1016.0;;;36.1
79148;BMP280;68562;51.600;6.524;2023-06-14T10:50:04;1016.0;;;36.3
79148;BMP280;68562;51.600;6.524;2023-06-14T10:55:03;1016.0;;;36.7
79148;BMP280;68562;51.600;6.524;2023-06-14T11:00:00;1016.0;;;37.3
79148;BMP280;68562;51.600;6.524;2023-06-14T11:05:03;1016.0;;;37.9
79148;BMP280;68562;51.600;6.524;2023-06-14T11:10:06;1015.6;;;38.2
79148;BMP280;68562;51.600;6.524;2023-06-14T11:15:00;1015.9;;;38.5
79148;BMP280;68562;51.600;6.524;2023-06-14T11:20:08;1015.9;;;38.8
79148;BMP280;68562;51.600;6.524;2023-06-14T11:25:01;1015.9;;;38.9
79148;BMP280;68562;51.600;6.524;2023-06-14T11:30:00;1015.9;;;38.9
79148;BMP280;68562;51.600;6.524;2023-06-14T11:35:00;1015.9;;;39.1
79148;BMP280;68562;51.600;6.524;2023-06-14T11:40:00;1015.8;;;39.4
79148;BMP280;68562;51.600;6.524;2023-06-14T11:45:00;1015.8;;;39.7
79148;BMP280;68562;51.600;6.524;2023-06-14T11:50:00;1015.9;;;39.5
79148;BMP280;68562;51.600;6.524;2023-06-14T11:55:01;1015.9;;;39.6
79148;BMP280;68562;51.600;6.524;2023-06-14T12:00:03;1015.9;;;39.7
79148;BMP280;68562;51.600;6.524;2023-06-14T12:05:04;1015.9;;;39.6
79148;BMP280;68562;51.600;6.524;2023-06-14T12:10:04;1015.9;;;39.5
79148;BMP280;68562;51.600;6.524;2023-06-14T12:15:03;1015.9;;;39.6
79148;BMP280;68562;51.600;6.524;2023-06-14T12:20:05;1015.7;;;39.8
79148;BMP280;68562;51.600;6.524;2023-06-14T12:25:00;1015.8;;;40.1
79148;BMP280;68562;51.600;6.524;2023-06-14T12:30:01;1015.8;;;39.8
79148;BMP280;68562;51.600;6.524;2023-06-14T12:35:00;1015.8;;;39.8
79148;BMP280;68562;51.600;6.524;2023-06-14T12:40:00;1015.8;;;40.1
79148;BMP280;68562;51.600;6.524;2023-06-14T12:45:00;1015.8;;;40.4
79148;BMP280;68562;51.600;6.524;2023-06-14T12:50:00;1015.9;;;40.7
79148;BMP280;68562;51.600;6.524;2023-06-14T12:55:00;1015.8;;;40.6
79148;BMP280;68562;51.600;6.524;2023-06-14T13:00:00;1015.8;;;40.2
79148;BMP280;68562;51.600;6.524;2023-06-14T13:05:00;1015.9;;;39.6
79148;BMP280;68562;51.600;6.524;2023-06-14T13:10:00;1015.8;;;39.2
79148;BMP280;68562;51.600;6.524;2023-06-14T13:15:00;1015.8;;;38.6
79148;BMP280;68562;51.600;6.524;2023-06-14T13:20:00;1015.9;;;38.1
79148;BMP280;68562;51.600;6.524;2023-06-14T13:25:00;1015.8;;;38.0
79148;BMP280;68562;51.600;6.524;2023-06-14T13:30:00;1015.8;;;38.3
79148;BMP280;68562;51.600;6.524;2023-06-14T13:35:00;1015.8;;;39.0
79148;BMP280;68562;51.600;6.524;2023-06-14T13:40:00;1015.8;;;39.5
79148;BMP280;68562;51.600;6.524;2023-06-14T13:45:00;1015.7;;;39.8
79148;BMP280;68562;51.600;6.524;2023-06-14T13:50:00;1015.7;;;40.2
79148;BMP280;68562;51.600;6.524;2023-06-14T13:55:00;1015.7;;;40.3
79148;BMP280;68562;51.600;6.524;2023-06-14T14:00:00;1015.7;;;39.8
79148;BMP280;68562;51.600;6.524;2023-06-14T14:05:00;1015.7;;;39.4
79148;BMP280;68562;51.600;6.524;2023-06-14T14:10:00;1015.7;;;39.3
79148;BMP280;68562;51.600;6.524;2023-06-14T14:15:00;1015.7;;;39.5
79148;BMP280;68562;51.600;6.524;2023-06-14T14:20:00;1015.7;;;39.4
79148;BMP280;68562;51.600;6.524;2023-06-14T14:25:00;1015.7;;;39.0
79148;BMP280;68562;51.600;6.524;2023-06-14T14:30:00;1015.6;;;38.8
79148;BMP280;68562;51.600;6.524;2023-06-14T14:35:00;1015.7;;;38.8
79148;BMP280;68562;51.600;6.524;2023-06-14T14:40:00;1015.7;;;38.1
79148;BMP280;68562;51.600;6.524;2023-06-14T14:45:00;1015.8;;;37.2
79148;BMP280;68562;51.600;6.524;2023-06-14T14:50:00;1015.7;;;37.0
79148;BMP280;68562;51.600;6.524;2023-06-14T14:55:00;1015.7;;;37.0
79148;BMP280;68562;51.600;6.524;2023-06-14T15:00:00;1015.8;;;36.9
79148;BMP280;68562;51.600;6.524;2023-06-14T15:05:00;1015.8;;;36.5
79148;BMP280;68562;51.600;6.524;2023-06-14T15:10:00;1015.8;;;36.2
79148;BMP280;68562;51.600;6.524;2023-06-14T15:15:00;1015.7;;;35.7
79148;BMP280;68562;51.600;6.524;2023-06-14T15:20:00;1015.6;;;35.4
79148;BMP280;68562;51.600;6.524;2023-06-14T15:25:00;1015.8;;;35.2
79148;BMP280;68562;51.600;6.524;2023-06-14T15:30:00;1015.7;;;34.8
79148;BMP280;68562;51.600;6.524;2023-06-14T15:35:00;1015.7;;;34.4
79148;BMP280;68562;51.600;6.524;2023-06-14T15:40:00;1015.8;;;34.1
79148;BMP280;68562;51.600;6.524;2023-06-14T15:45:00;1015.7;;;33.8
79148;BMP280;68562;51.600;6.524;2023-06-14T15:50:00;1015.7;;;33.4
79148;BMP280;68562;51.600;6.524;2023-06-14T15:55:01;1015.7;;;33.1
79148;BMP280;68562;51.600;6.524;2023-06-14T16:00:00;1015.7;;;33.0
79148;BMP280;68562;51.600;6.524;2023-06-14T16:05:00;1015.6;;;32.8
79148;BMP280;68562;51.600;6.524;2023-06-14T16:10:00;1015.7;;;32.6
79148;BMP280;68562;51.600;6.524;2023-06-14T16:15:00;1015.8;;;32.3
79148;BMP280;68562;51.600;6.524;2023-06-14T16:20:00;1015.7;;;31.8
79148;BMP280;68562;51.600;6.524;2023-06-14T16:25:00;1015.7;;;31.3
79148;BMP280;68562;51.600;6.524;2023-06-14T16:30:00;1015.7;;;30.8
79148;BMP280;68562;51.600;6.524;2023-06-14T16:35:00;1015.8;;;30.7
79148;BMP280;68562;51.600;6.524;2023-06-14T16:40:00;1015.7;;;30.5
79148;BMP280;68562;51.600;6.524;2023-06-14T16:45:00;1015.8;;;30.4
79148;BMP280;68562;51.600;6.524;2023-06-14T16:50:00;1015.8;;;30.2
79148;BMP280;68562;51.600;6.524;2023-06-14T16:55:00;1015.7;;;30.0
79148;BMP280;68562;51.600;6.524;2023-06-14T17:00:00;1015.8;;;29.9
79148;BMP280;68562;51.600;6.524;2023-06-14T17:05:00;1015.8;;;29.8
79148;BMP280;68562;51.600;6.524;2023-06-14T17:10:00;1015.8;;;29.5
79148;BMP280;68562;51.600;6.524;2023-06-14T17:15:01;1015.9;;;29.4
79148;BMP280;68562;51.600;6.524;2023-06-14T17:20:00;1015.9;;;29.3
79148;BMP280;68562;51.600;6.524;2023-06-14T17:25:00;1015.8;;;29.2
79148;BMP280;68562;51.600;6.524;2023-06-14T17:30:00;1015.8;;;29.1
79148;BMP280;68562;51.600;6.524;2023-06-14T17:35:00;1015.9;;;29.0
79148;BMP280;68562;51.600;6.524;2023-06-14T17:40:00;1016.0;;;28.9
79148;BMP280;68562;51.600;6.524;2023-06-14T17:45:00;1016.0;;;28.8
79148;BMP280;68562;51.600;6.524;2023-06-14T17:50:00;1016.1;;;28.7
79148;BMP280;68562;51.600;6.524;2023-06-14T17:55:00;1016.0;;;28.6
79148;BMP280;68562;51.600;6.524;2023-06-14T18:00:00;1016.0;;;28.6
79148;BMP280;68562;51.600;6.524;2023-06-14T18:05:00;1016.0;;;28.5
79148;BMP280;68562;51.600;6.524;2023-06-14T18:10:00;1016.0;;;28.4
79148;BMP280;68562;51.600;6.524;2023-06-14T18:15:00;1016.1;;;28.3
79148;BMP280;68562;51.600;6.524;2023-06-14T18:20:00;1016.1;;;28.3
79148;BMP280;68562;51.600;6.524;2023-06-14T18:25:00;1016.1;;;28.1
79148;BMP280;68562;51.600;6.524;2023-06-14T18:30:00;1016.2;;;28.1
79148;BMP280;68562;51.600;6.524;2023-06-14T18:35:00;1016.3;;;28.0
79148;BMP280;68562;51.600;6.524;2023-06-14T18:40:00;1016.3;;;27.9
79148;BMP280;68562;51.600;6.524;2023-06-14T18:45:00;1016.3;;;27.8
79148;BMP280;68562;51.600;6.524;2023-06-14T18:50:00;1016.3;;;27.7
79148;BMP280;68562;51.600;6.524;2023-06-14T18:55:00;1016.3;;;27.6
79148;BMP280;68562;51.600;6.524;2023-06-14T19:00:00;1016.3;;;27.5
79148;BMP280;68562;51.600;6.524;2023-06-14T19:05:00;1016.4;;;27.4
79148;BMP280;68562;51.600;6.524;2023-06-14T19:10:00;1016.4;;;27.3
79148;BMP280;68562;51.600;6.524;2023-06-14T19:15:00;1016.4;;;27.1
79148;BMP280;68562;51.600;6.524;2023-06-14T19:20:00;1016.5;;;27.0
79148;BMP280;68562;51.600;6.524;2023-06-14T19:25:00;1016.5;;;26.9
79148;BMP280;68562;51.600;6.524;2023-06-14T19:30:00;1016.5;;;26.8
79148;BMP280;68562;51.600;6.524;2023-06-14T19:35:00;1016.6;;;26.6
79148;BMP280;68562;51.600;6.524;2023-06-14T19:40:00;1016.7;;;26.5
79148;BMP280;68562;51.600;6.524;2023-06-14T19:45:00;1016.7;;;26.4
79148;BMP280;68562;51.600;6.524;2023-06-14T19:50:00;1016.8;;;26.3
79148;BMP280;68562;51.600;6.524;2023-06-14T19:55:00;1016.8;;;26.2
79148;BMP280;68562;51.600;6.524;2023-06-14T20:00:00;1016.9;;;26.2
79148;BMP280;68562;51.600;6.524;2023-06-14T20:05:00;1016.9;;;26.1
79148;BMP280;68562;51.600;6.524;2023-06-14T20:10:00;1017.0;;;26.0
79148;BMP280;68562;51.600;6.524;2023-06-14T20:15:00;1017.0;;;26.0
79148;BMP280;68562;51.600;6.524;2023-06-14T20:20:00;1017.0;;;25.9
79148;BMP280;68562;51.600;6.524;2023-06-14T20:25:00;1017.1;;;25.8
79148;BMP280;68562;51.600;6.524;2023-06-14T20:30:00;1017.0;;;25.7
79148;BMP280;68562;51.600;6.524;2023-06-14T20:35:00;1017.1;;;25.6
79148;BMP280;68562;51.600;6.524;2023-06-14T20:40:00;1017.1;;;25.5
79148;BMP280;68562;51.600;6.524;2023-06-14T20:45:00;1017.2;;;25.4
79148;BMP280;68562;51.600;6.524;2023-06-14T20:50:00;1017.2;;;25.2
79148;BMP280;68562;51.600;6.524;2023-06-14T20:55:00;1017.2;;;25.1
79148;BMP280;68562;51.600;6.524;2023-06-14T21:00:00;1017.2;;;24.9
79148;BMP280;68562;51.600;6.524;2023-06-14T21:05:00;1017.2;;;24.8
79148;BMP280;68562;51.600;6.524;2023-06-14T21:10:00;1017.3;;;24.6
79148;BMP280;68562;51.600;6.524;2023-06-14T21:15:00;1017.3;;;24.5
79148;BMP280;68562;51.600;6.524;2023-06-14T21:20:00;1017.3;;;24.4
79148;BMP280;68562;51.600;6.524;2023-06-14T21:25:00;1017.3;;;24.4
79148;BMP280;68562;51.600;6.524;2023-06-14T21:30:00;1017.3;;;24.3
79148;BMP280;68562;51.600;6.524;2023-06-14T21:35:00;1017.3;;;24.2
79148;BMP280;68562;51.600;6.524;2023-06-14T21:40:00;1017.3;;;24.1
79148;BMP280;68562;51.600;6.524;2023-06-14T21:45:00;1017.3;;;24.1
79148;BMP280;68562;51.600;6.524;2023-06-14T21:50:00;1017.3;;;24.0
79148;BMP280;68562;51.600;6.524;2023-06-14T21:55:00;1017.3;;;24.0
79148;BMP280;68562;51.600;6.524;2023-06-14T22:00:00;1017.3;;;24.0
79148;BMP280;68562;51.600;6.524;2023-06-14T22:05:00;1017.4;;;23.9
79148;BMP280;68562;51.600;6.524;2023-06-14T22:10:00;1017.4;;;23.8
79148;BMP280;68562;51.600;6.524;2023-06-14T22:15:00;1017.4;;;23.8
79148;BMP280;68562;51.600;6.524;2023-06-14T22:20:00;1017.4;;;23.7
79148;BMP280;68562;51.600;6.524;2023-06-14T22:25:00;1017.4;;;23.6
79148;BMP280;68562;51.600;6.524;2023-06-14T22:30:00;1017.4;;;23.5
79148;BMP280;68562;51.600;6.524;2023-06-14T22:35:00;1017.4;;;23.4
79148;BMP280;68562;51.600;6.524;2023-06-14T22:40:00;1017.4;;;23.3
79148;BMP280;68562;51.600;6.524;2023-06-14T22:45:00;1017.4;;;23.3
79148;BMP280;68562;51.600;6.524;2023-06-14T22:50:00;1017.5;;;23.2
79148;BMP280;68562;51.600;6.524;2023-06-14T22:55:00;1017.4;;;23.2
79148;BMP280;68562;51.600;6.524;2023-06-14T23:00:00;1017.4;;;23.1
79148;BMP280;68562;51.600;6.524;2023-06-14T23:05:00;1017.4;;;23.0
79148;BMP280;68562;51.600;6.524;2023-06-14T23:10:00;1017.5;;;22.9
79148;BMP280;68562;51.600;6.524;2023-06-14T23:15:00;1017.4;;;22.9
79148;BMP280;68562;51.600;6.524;2023-06-14T23:20:01;1017.4;;;22.8
79148;BMP280;68562;51.600;6.524;2023-06-14T23:25:01;1017.4;;;22.8
79148;BMP280;68562;51.600;6.524;2023-06-14T23:30:01;1017.4;;;22.7
79148;BMP280;68562;51.600;6.524;2023-06-14T23:35:01;1017.4;;;22.6
79148;BMP280;68562;51.600;6.524;2023-06-14T23:40:00;1017.4;;;22.6
79148;BMP280;68562;51.600;6.524;2023-06-14T23:45:00;1017.5;;;22.5
79148;BMP280;68562;51.600;6.524;2023-06-14T23:50:00;1017.4;;;22.5
79148;BMP280;68562;51.600;6.524;2023-06-14T23:55:00;1017.5;;;22.5
